createdAt,value
2022-12-31T00:02:43.374Z,28.50
2022-12-31T00:12:43.272Z,30.50
2022-12-31T00:22:43.243Z,28.90
2022-12-31T00:32:43.368Z,29.70
2022-12-31T00:42:43.246Z,24.80
2022-12-31T00:52:43.272Z,31.70
2022-12-31T01:02:43.473Z,28.90
2022-12-31T01:12:43.263Z,28.40
2022-12-31T01:22:43.324Z,27.80
2022-12-31T01:32:43.276Z,29.30
2022-12-31T01:42:43.268Z,24.30
2022-12-31T01:52:43.295Z,22.70
2022-12-31T02:02:43.345Z,25.00
2022-12-31T02:12:43.282Z,20.80
2022-12-31T02:22:43.310Z,20.50
2022-12-31T02:32:43.391Z,20.20
2022-12-31T02:42:43.310Z,19.50
2022-12-31T02:52:43.288Z,16.80
2022-12-31T03:02:43.381Z,17.30
2022-12-31T03:12:43.385Z,16.20
2022-12-31T03:22:43.343Z,15.20
2022-12-31T03:32:43.380Z,15.80
2022-12-31T03:42:43.475Z,13.90
2022-12-31T03:52:43.349Z,11.30
2022-12-31T04:02:43.385Z,11.80
2022-12-31T04:12:43.417Z,12.50
2022-12-31T04:22:43.325Z,11.30
2022-12-31T04:32:43.356Z,11.20
2022-12-31T04:42:43.400Z,13.40
2022-12-31T04:52:43.346Z,17.40
2022-12-31T05:02:43.492Z,15.30
2022-12-31T05:12:43.444Z,15.30
2022-12-31T05:22:43.354Z,17.80
2022-12-31T05:32:43.356Z,18.30
2022-12-31T05:42:43.378Z,16.70
2022-12-31T05:52:47.402Z,16.60
2022-12-31T06:02:43.410Z,20.20
2022-12-31T06:22:43.445Z,19.10
2022-12-31T06:32:43.403Z,16.60
2022-12-31T06:42:43.411Z,17.10
2022-12-31T06:52:43.410Z,17.30
2022-12-31T07:02:43.575Z,14.90
2022-12-31T07:12:43.415Z,15.60
2022-12-31T07:22:43.554Z,12.20
2022-12-31T07:32:43.400Z,8.70
2022-12-31T07:42:43.417Z,7.60
2022-12-31T07:52:43.408Z,7.00
2022-12-31T08:02:43.431Z,7.00
2022-12-31T08:12:43.488Z,6.70
2022-12-31T08:22:43.412Z,6.60
2022-12-31T08:32:43.447Z,5.40
2022-12-31T08:42:43.429Z,4.60
2022-12-31T08:52:43.472Z,4.00
2022-12-31T09:02:48.079Z,4.20
2022-12-31T09:12:43.441Z,4.80
2022-12-31T09:22:43.432Z,4.80
2022-12-31T09:32:43.481Z,4.60
2022-12-31T09:42:43.450Z,3.60
2022-12-31T09:52:43.468Z,5.60
2022-12-31T10:02:43.690Z,3.60
2022-12-31T10:12:43.481Z,5.40
2022-12-31T10:22:43.489Z,5.80
2022-12-31T10:32:43.496Z,4.80
2022-12-31T10:42:43.548Z,5.10
2022-12-31T10:52:43.572Z,4.70
2022-12-31T11:02:43.618Z,4.00
2022-12-31T11:12:43.525Z,4.30
2022-12-31T11:22:43.521Z,4.20
2022-12-31T11:32:43.498Z,3.80
2022-12-31T11:42:43.514Z,3.90
2022-12-31T11:52:43.525Z,4.50
2022-12-31T12:02:43.569Z,4.70
2022-12-31T12:12:43.522Z,4.00
2022-12-31T12:22:47.865Z,4.50
2022-12-31T12:32:43.512Z,4.80
2022-12-31T12:42:43.507Z,5.10
2022-12-31T12:52:43.593Z,4.90
2022-12-31T13:02:43.748Z,5.10
2022-12-31T13:13:22.234Z,5.00
2022-12-31T13:22:43.518Z,5.50
2022-12-31T13:32:43.643Z,4.50
2022-12-31T13:42:43.541Z,5.00
2022-12-31T13:52:43.544Z,6.60
2022-12-31T14:02:43.731Z,4.40
2022-12-31T14:12:43.693Z,6.50
2022-12-31T14:22:43.544Z,4.20
2022-12-31T14:32:43.561Z,5.40
2022-12-31T14:42:43.562Z,4.90
2022-12-31T14:52:43.623Z,5.30
2022-12-31T15:02:43.738Z,5.10
2022-12-31T15:12:43.602Z,5.10
2022-12-31T15:22:43.587Z,6.00
2022-12-31T15:32:43.620Z,5.70
2022-12-31T15:42:49.853Z,8.00
2022-12-31T15:52:43.594Z,5.90
2022-12-31T16:02:43.744Z,5.20
2022-12-31T16:12:44.930Z,5.60
2022-12-31T16:22:43.637Z,5.00
2022-12-31T16:32:43.633Z,5.90
2022-12-31T16:42:44.569Z,8.60
2022-12-31T16:52:43.694Z,5.00
2022-12-31T17:02:43.914Z,7.40
2022-12-31T17:13:17.451Z,6.80
2022-12-31T17:22:43.738Z,6.80
2022-12-31T17:32:43.637Z,12.90
2022-12-31T17:42:43.664Z,9.20
2022-12-31T17:52:43.657Z,6.30
2022-12-31T18:02:43.724Z,13.80
2022-12-31T18:12:43.691Z,7.70
2022-12-31T18:22:43.678Z,8.60
2022-12-31T18:32:43.751Z,8.30
2022-12-31T18:42:43.687Z,7.20
2022-12-31T18:52:43.667Z,9.00
2022-12-31T19:02:43.708Z,9.00
2022-12-31T19:12:43.854Z,8.10
2022-12-31T19:22:43.695Z,9.00
2022-12-31T19:32:43.682Z,6.50
2022-12-31T19:42:43.683Z,6.70
2022-12-31T19:52:43.705Z,5.60
2022-12-31T20:02:43.880Z,6.50
2022-12-31T20:12:44.794Z,5.80
2022-12-31T20:22:43.710Z,7.20
2022-12-31T20:32:43.707Z,9.40
2022-12-31T20:42:43.700Z,6.60
2022-12-31T20:52:43.703Z,5.90
2022-12-31T21:02:46.619Z,6.10
2022-12-31T21:12:43.756Z,5.80
2022-12-31T21:22:43.785Z,6.90
2022-12-31T21:32:43.739Z,6.50
2022-12-31T21:42:43.738Z,6.80
2022-12-31T21:52:43.762Z,6.70
2022-12-31T22:02:43.891Z,7.50
2022-12-31T22:12:43.795Z,6.50
2022-12-31T22:22:43.753Z,6.30
2022-12-31T22:32:43.847Z,5.60
2022-12-31T22:42:43.759Z,19.20
2022-12-31T22:52:43.759Z,16.20
2022-12-31T23:02:43.819Z,10.60
2022-12-31T23:12:43.789Z,14.70
2022-12-31T23:22:43.766Z,10.00
2022-12-31T23:32:43.802Z,9.40
2022-12-31T23:42:43.814Z,10.00
2022-12-31T23:52:43.810Z,8.30
